Time;durP1;ratioP1;P1;durP2;ratioP2;P2;SDS_P1;SDS_P2;PMS_P1;PMS_P2;Temp;Humidity;BMP_temperature;BMP_pressure;BME280_temperature;BME280_humidity;BME280_pressure;Samples;Min_cycle;Max_cycle;Signal;HPM_P1;HPM_P2
2021/06/06 06:14:04;;;;;;;8.48;2.95;;;19.30;62.40;;;;;;5098508;28;20138;-42
2021/06/06 06:16:33;;;;;;;8.57;2.90;;;19.20;61.90;;;;;;5118858;28;20307;-40
2021/06/06 06:19:01;;;;;;;7.43;2.70;;;19.30;62.20;;;;;;5118769;28;20026;-40
2021/06/06 06:21:28;;;;;;;8.40;3.15;;;19.30;61.40;;;;;;5119130;28;20024;-44
2021/06/06 06:23:55;;;;;;;6.35;2.65;;;19.30;61.70;;;;;;5118525;28;20031;-40
2021/06/06 06:26:21;;;;;;;6.78;3.40;;;19.30;62.60;;;;;;5118322;28;20044;-45
2021/06/06 06:28:47;;;;;;;15.80;7.18;;;19.40;62.80;;;;;;5118604;28;20420;-41
2021/06/06 06:31:14;;;;;;;7.78;3.63;;;19.40;63.10;;;;;;5118509;28;20044;-40
2021/06/06 06:33:41;;;;;;;4.60;2.80;;;19.40;62.90;;;;;;5118293;28;20445;-42
2021/06/06 06:36:09;;;;;;;4.20;2.58;;;19.40;63.10;;;;;;5118410;28;20032;-40
2021/06/06 06:38:35;;;;;;;5.65;2.47;;;19.50;62.90;;;;;;5118349;28;20058;-43
2021/06/06 06:41:02;;;;;;;7.82;2.10;;;19.50;62.70;;;;;;5118429;28;20024;-42
2021/06/06 06:43:28;;;;;;;3.55;1.92;;;19.50;62.40;;;;;;5118271;27;20035;-42
2021/06/06 06:45:54;;;;;;;3.70;2.13;;;19.50;62.60;;;;;;5118284;28;20300;-39
2021/06/06 06:48:24;;;;;;;6.88;2.10;;;19.60;62.10;;;;;;5117740;28;20027;-39
2021/06/06 06:50:51;;;;;;;6.47;2.25;;;19.60;62.00;;;;;;5117880;28;20027;-40
2021/06/06 06:53:18;;;;;;;11.40;4.88;;;19.60;62.10;;;;;;5117733;28;20104;-42
2021/06/06 06:55:44;;;;;;;3.75;2.40;;;19.60;61.80;;;;;;5117328;28;20115;-39
2021/06/06 06:58:10;;;;;;;7.93;2.63;;;19.70;61.50;;;;;;5117546;28;20085;-39
2021/06/06 07:00:40;;;;;;;5.55;2.38;;;19.70;61.40;;;;;;5117820;28;20077;-44
2021/06/06 07:03:07;;;;;;;7.90;2.72;;;19.70;62.00;;;;;;5117821;28;20084;-40
2021/06/06 07:05:33;;;;;;;6.13;2.60;;;19.70;63.30;;;;;;5117692;28;20024;-40
2021/06/06 07:08:00;;;;;;;6.47;2.75;;;19.80;61.70;;;;;;5117904;28;20319;-42
2021/06/06 07:10:29;;;;;;;5.82;3.00;;;19.80;61.50;;;;;;5117691;28;20020;-42
2021/06/06 07:12:55;;;;;;;5.15;3.45;;;19.80;61.40;;;;;;5117345;28;20072;-40
2021/06/06 07:15:21;;;;;;;8.30;3.17;;;19.80;61.70;;;;;;5117236;28;20048;-40
2021/06/06 07:17:47;;;;;;;6.05;3.35;;;19.90;61.00;;;;;;5117434;28;20237;-45
2021/06/06 07:20:18;;;;;;;6.45;2.80;;;19.90;60.70;;;;;;5116979;28;20135;-42
2021/06/06 07:22:44;;;;;;;;;;;20.00;60.90;;;;;;5118435;28;20323;-40
2021/06/06 07:25:12;;;;;;;6.15;2.95;;;20.00;60.70;;;;;;5113482;28;19919;-39
2021/06/06 07:27:43;;;;;;;6.70;2.67;;;20.00;60.20;;;;;;5095134;28;20039;-40
2021/06/06 07:30:11;;;;;;;9.85;2.75;;;20.10;60.30;;;;;;5096145;28;20039;-44
2021/06/06 07:32:37;;;;;;;5.10;2.97;;;20.20;60.30;;;;;;5097154;28;20024;-45
2021/06/06 07:35:05;;;;;;;7.50;2.95;;;20.20;60.90;;;;;;5096600;28;20028;-40
2021/06/06 07:37:32;;;;;;;5.32;2.22;;;20.30;59.50;;;;;;5096912;28;20028;-40
2021/06/06 07:39:58;;;;;;;5.13;2.35;;;20.30;59.60;;;;;;5096581;28;20028;-40
2021/06/06 07:42:24;;;;;;;6.97;2.90;;;20.30;59.60;;;;;;5096994;28;20077;-40
2021/06/06 07:44:50;;;;;;;6.43;3.00;;;20.30;60.10;;;;;;5096601;28;20024;-40
2021/06/06 07:47:15;;;;;;;11.48;3.00;;;20.30;60.30;;;;;;5096281;28;20346;-43
2021/06/06 07:49:42;;;;;;;5.25;2.70;;;20.30;60.50;;;;;;5096733;28;20030;-43
2021/06/06 07:52:08;;;;;;;7.30;3.97;;;20.30;61.40;;;;;;5096344;28;20024;-40
2021/06/06 07:54:34;;;;;;;5.80;3.08;;;20.30;60.80;;;;;;5095981;28;20025;-39
2021/06/06 07:57:02;;;;;;;5.22;2.40;;;20.40;60.80;;;;;;5095958;28;20087;-44
2021/06/06 07:59:28;;;;;;;15.73;3.90;;;20.40;60.40;;;;;;5096229;28;20035;-43
2021/06/06 08:01:55;;;;;;;3.08;2.20;;;20.50;60.40;;;;;;5096208;28;20029;-47
2021/06/06 08:04:20;;;;;;;3.28;2.10;;;20.60;60.20;;;;;;5096089;28;20032;-39
2021/06/06 08:06:47;;;;;;;4.68;2.28;;;20.60;59.90;;;;;;5095000;28;20294;-42
2021/06/06 08:09:13;;;;;;;8.38;3.05;;;20.70;59.90;;;;;;5095578;28;20036;-39
2021/06/06 08:11:40;;;;;;;4.75;2.53;;;20.70;59.40;;;;;;5094776;28;20024;-39
2021/06/06 08:14:05;;;;;;;7.13;2.35;;;20.80;59.40;;;;;;5095533;28;20051;-47
2021/06/06 08:16:32;;;;;;;9.70;4.15;;;20.90;58.60;;;;;;5095650;28;20050;-42
2021/06/06 08:18:57;;;;;;;5.38;3.00;;;20.90;58.40;;;;;;5095588;28;20320;-43
2021/06/06 08:21:27;;;;;;;5.25;3.03;;;20.90;58.60;;;;;;5095204;28;20028;-43
2021/06/06 08:23:52;;;;;;;8.25;4.85;;;21.00;58.30;;;;;;5096067;28;20040;-44
2021/06/06 08:26:21;;;;;;;5.03;2.22;;;21.00;58.40;;;;;;5096146;28;20028;-39
2021/06/06 08:28:49;;;;;;;7.03;2.42;;;21.00;58.30;;;;;;5096026;28;20114;-42
2021/06/06 08:31:18;;;;;;;5.72;3.50;;;21.00;58.30;;;;;;5095584;28;20412;-39
2021/06/06 08:33:44;;;;;;;7.22;2.83;;;21.00;58.20;;;;;;5095608;28;20430;-40
2021/06/06 08:36:17;;;;;;;3.83;2.72;;;21.10;58.20;;;;;;5089841;28;20024;-39
2021/06/06 08:38:43;;;;;;;4.95;2.72;;;21.10;58.00;;;;;;5095506;28;20063;-44
2021/06/06 08:41:49;;;;;;;5.90;2.90;;;21.10;58.20;;;;;;5094960;28;20115;-43
2021/06/06 08:44:38;;;;;;;6.18;2.28;;;21.20;58.30;;;;;;5095331;28;20120;-45
2021/06/06 08:47:05;;;;;;;11.68;3.00;;;21.20;58.80;;;;;;5095218;28;20034;-40
2021/06/06 08:49:37;;;;;;;5.00;2.33;;;21.20;59.20;;;;;;5095122;28;20030;-39
2021/06/06 08:52:35;;;;;;;5.20;2.63;;;21.10;58.80;;;;;;5095322;28;20020;-42
2021/06/06 08:55:09;;;;;;;7.65;3.00;;;21.10;58.50;;;;;;5094715;28;20071;-39
2021/06/06 08:57:46;;;;;;;5.43;2.88;;;21.00;58.60;;;;;;5095638;28;20368;-39
2021/06/06 09:00:23;;;;;;;6.85;2.75;;;20.90;58.90;;;;;;5094769;28;20442;-40
2021/06/06 09:02:51;;;;;;;7.07;3.22;;;20.90;58.90;;;;;;5095597;28;20035;-39
2021/06/06 09:05:24;;;;;;;6.78;2.83;;;20.80;59.40;;;;;;5094513;28;20024;-40
2021/06/06 09:07:51;;;;;;;9.23;2.97;;;20.80;59.50;;;;;;5094395;28;20040;-42
2021/06/06 09:10:32;;;;;;;8.18;3.08;;;20.80;59.50;;;;;;5093745;28;20047;-39
2021/06/06 09:12:59;;;;;;;;;;;20.80;59.60;;;;;;5095739;28;20416;-42
2021/06/06 09:15:27;;;;;;;6.30;3.05;;;20.70;59.50;;;;;;5094985;28;19919;-43
2021/06/06 09:17:58;;;;;;;5.50;2.70;;;20.70;59.80;;;;;;5096310;28;20036;-42
2021/06/06 09:20:27;;;;;;;4.80;2.75;;;20.60;59.90;;;;;;5098926;28;20051;-40
2021/06/06 09:23:15;;;;;;;5.78;3.08;;;20.60;60.40;;;;;;5099262;28;20036;-42
2021/06/06 09:25:44;;;;;;;7.97;4.03;;;20.60;60.70;;;;;;5099575;28;20028;-42
2021/06/06 09:28:23;;;;;;;12.88;6.50;;;20.50;61.30;;;;;;5098922;28;20028;-42
2021/06/06 09:31:19;;;;;;;15.38;5.95;;;20.50;61.40;;;;;;5098882;28;20104;-39
2021/06/06 09:33:45;;;;;;;8.15;3.70;;;20.60;61.30;;;;;;5098246;28;20032;-40
2021/06/06 09:36:23;;;;;;;8.73;3.47;;;20.60;61.40;;;;;;5099054;28;20107;-40
2021/06/06 09:38:53;;;;;;;15.65;5.13;;;20.60;61.50;;;;;;5094037;28;20328;-40
2021/06/06 09:41:22;;;;;;;6.25;3.13;;;20.60;61.60;;;;;;5099034;28;20396;-39
2021/06/06 09:44:08;;;;;;;5.28;2.47;;;20.60;61.50;;;;;;5098479;28;20036;-42
2021/06/06 09:46:42;;;;;;;12.10;4.10;;;20.60;61.60;;;;;;5098730;28;20158;-42
2021/06/06 09:49:29;;;;;;;8.48;3.53;;;20.60;61.30;;;;;;5098457;28;20077;-46
2021/06/06 09:52:20;;;;;;;9.55;3.58;;;20.70;61.30;;;;;;5096499;28;20455;-46
2021/06/06 09:54:55;;;;;;;11.50;3.90;;;20.70;61.50;;;;;;5093690;28;20067;-44
2021/06/06 09:57:29;;;;;;;9.35;3.53;;;20.70;61.40;;;;;;5098269;28;20320;-40
2021/06/06 10:00:04;;;;;;;6.63;3.13;;;20.70;61.50;;;;;;5098280;28;20063;-40
2021/06/06 10:02:34;;;;;;;12.70;3.63;;;20.60;63.00;;;;;;5098484;28;20039;-42
2021/06/06 10:05:08;;;;;;;7.13;3.05;;;20.60;63.20;;;;;;5098458;28;20351;-44
2021/06/06 10:07:40;;;;;;;8.18;3.53;;;20.50;63.30;;;;;;5098385;28;20096;-39
2021/06/06 10:10:16;;;;;;;6.65;2.90;;;20.40;63.60;;;;;;5098286;28;20448;-40
2021/06/06 10:12:48;;;;;;;6.47;2.67;;;20.20;63.70;;;;;;5098295;28;20031;-40
2021/06/06 10:15:35;;;;;;;8.27;3.28;;;20.20;64.00;;;;;;5097996;28;20055;-40
2021/06/06 10:18:10;;;;;;;6.65;3.00;;;20.10;64.40;;;;;;5097542;28;20441;-40
2021/06/06 10:20:39;;;;;;;11.15;3.30;;;20.10;65.00;;;;;;5096820;28;20028;-40
2021/06/06 10:23:08;;;;;;;3.88;2.92;;;20.00;64.90;;;;;;5098058;28;20035;-40
2021/06/06 10:25:51;;;;;;;6.75;3.28;;;19.90;65.20;;;;;;5098242;28;20332;-40
2021/06/06 10:28:25;;;;;;;5.57;3.05;;;19.80;65.50;;;;;;5098093;28;20028;-42
2021/06/06 10:31:13;;;;;;;9.07;5.35;;;19.80;65.10;;;;;;5096844;28;20036;-40
2021/06/06 10:33:49;;;;;;;6.78;3.72;;;19.70;65.20;;;;;;5098274;28;20028;-41
2021/06/06 10:36:18;;;;;;;7.10;3.55;;;19.60;65.50;;;;;;5098005;28;20372;-43
2021/06/06 10:38:46;;;;;;;11.65;4.97;;;19.60;66.10;;;;;;5097725;28;20326;-39
2021/06/06 10:41:14;;;;;;;9.95;5.18;;;19.60;66.30;;;;;;5097944;28;20047;-39
2021/06/06 10:43:40;;;;;;;20.08;12.82;;;19.50;66.90;;;;;;5097395;28;20028;-43
2021/06/06 10:46:25;;;;;;;11.07;5.32;;;19.50;67.50;;;;;;5097286;28;20039;-41
2021/06/06 10:49:18;;;;;;;12.15;4.75;;;19.60;67.30;;;;;;5097502;28;20400;-39
2021/06/06 10:52:05;;;;;;;9.52;3.58;;;19.60;67.30;;;;;;5092086;28;20040;-39
2021/06/06 10:54:37;;;;;;;6.07;3.58;;;19.60;66.40;;;;;;5097874;28;20031;-39
2021/06/06 10:57:28;;;;;;;8.02;4.25;;;19.70;66.60;;;;;;5097744;28;20062;-39
2021/06/06 11:00:00;;;;;;;10.88;5.38;;;19.70;66.70;;;;;;5097424;28;20028;-43
2021/06/06 11:03:06;;;;;;;7.13;4.30;;;19.80;66.30;;;;;;5097844;28;20039;-40
2021/06/06 11:05:48;;;;;;;7.47;3.58;;;19.90;65.40;;;;;;5097089;28;20455;-44
2021/06/06 11:08:16;;;;;;;9.50;4.60;;;20.00;65.20;;;;;;5097020;28;20077;-45
2021/06/06 11:10:42;;;;;;;7.15;4.22;;;20.20;65.40;;;;;;5097429;28;20020;-43
2021/06/06 11:13:35;;;;;;;6.65;3.10;;;20.30;65.50;;;;;;5097153;28;20108;-43
2021/06/06 11:16:19;;;;;;;7.40;3.70;;;20.50;64.90;;;;;;5097206;28;20040;-40
2021/06/06 11:18:55;;;;;;;6.13;3.30;;;20.70;63.60;;;;;;5096878;28;20024;-43
2021/06/06 11:21:45;;;;;;;7.00;3.90;;;20.80;62.90;;;;;;5097139;28;20081;-43
2021/06/06 11:24:20;;;;;;;12.18;3.75;;;21.00;62.60;;;;;;5096853;28;20077;-44
2021/06/06 11:26:58;;;;;;;11.57;3.60;;;21.10;62.20;;;;;;5097435;28;20081;-42
2021/06/06 11:29:26;;;;;;;6.50;2.92;;;21.20;61.00;;;;;;5096715;28;20385;-41
2021/06/06 11:32:01;;;;;;;11.20;2.88;;;21.40;60.20;;;;;;5097136;28;20068;-39
2021/06/06 11:34:31;;;;;;;7.78;3.20;;;21.50;60.00;;;;;;5096928;28;20023;-43
2021/06/06 11:37:29;;;;;;;7.35;3.67;;;21.50;59.30;;;;;;5097072;28;20028;-44
2021/06/06 11:39:57;;;;;;;7.63;3.08;;;21.50;59.50;;;;;;5096497;28;20608;-46
2021/06/06 11:42:36;;;;;;;9.40;4.13;;;21.60;59.70;;;;;;5096849;28;20036;-42
2021/06/06 11:45:10;;;;;;;8.20;4.47;;;21.70;59.30;;;;;;5096628;28;20028;-40
2021/06/06 11:47:48;;;;;;;7.18;3.30;;;21.80;58.90;;;;;;5096863;28;20047;-40
2021/06/06 11:50:40;;;;;;;6.93;3.10;;;21.80;59.10;;;;;;5096316;28;20381;-40
2021/06/06 11:53:22;;;;;;;6.05;3.60;;;22.00;58.50;;;;;;5096326;28;20309;-40
2021/06/06 11:55:52;;;;;;;6.80;4.05;;;22.10;58.60;;;;;;5096560;28;20092;-40
2021/06/06 11:58:59;;;;;;;6.18;3.10;;;22.20;58.10;;;;;;5096673;28;20453;-42
2021/06/06 12:01:26;;;;;;;7.28;3.38;;;22.30;58.00;;;;;;5090987;28;20404;-40
2021/06/06 12:04:09;;;;;;;7.85;2.90;;;22.40;58.00;;;;;;5096417;28;20040;-43
2021/06/06 12:06:36;;;;;;;4.90;2.63;;;22.50;57.70;;;;;;5095151;28;20079;-42
2021/06/06 12:09:18;;;;;;;5.93;3.20;;;22.60;57.60;;;;;;5096086;28;20431;-44
2021/06/06 12:11:46;;;;;;;6.20;3.22;;;22.80;57.20;;;;;;5096560;28;20040;-40
2021/06/06 12:14:14;;;;;;;3.50;2.88;;;23.10;55.90;;;;;;5095707;28;20051;-46
2021/06/06 12:16:52;;;;;;;6.13;2.65;;;23.30;54.70;;;;;;5095833;28;20328;-40
2021/06/06 12:19:36;;;;;;;9.38;2.60;;;23.60;54.60;;;;;;5096167;28;20036;-41
2021/06/06 12:22:15;;;;;;;8.43;3.20;;;23.80;53.60;;;;;;5096318;28;20024;-44
2021/06/06 12:24:41;;;;;;;7.55;2.88;;;24.10;53.00;;;;;;5096280;28;20028;-40
2021/06/06 12:27:41;;;;;;;4.13;2.40;;;24.30;52.50;;;;;;5096022;28;20103;-42
2021/06/06 12:30:27;;;;;;;7.07;2.85;;;24.50;52.10;;;;;;5088392;28;20036;-42
2021/06/06 12:32:53;;;;;;;5.40;2.35;;;24.60;51.70;;;;;;5096085;28;20032;-40
2021/06/06 12:35:22;;;;;;;5.22;2.80;;;24.70;51.90;;;;;;5095757;28;20316;-41
2021/06/06 12:37:49;;;;;;;4.70;2.97;;;24.90;51.60;;;;;;5096054;28;20040;-43
2021/06/06 12:40:19;;;;;;;7.63;2.83;;;25.00;50.90;;;;;;5095493;28;20055;-40
2021/06/06 12:42:46;;;;;;;7.13;2.72;;;25.20;50.20;;;;;;5095960;28;20039;-41
2021/06/06 12:45:16;;;;;;;6.70;2.63;;;25.40;50.20;;;;;;5095450;28;20062;-40
2021/06/06 12:47:44;;;;;;;3.60;2.33;;;25.60;49.90;;;;;;5096282;28;20322;-42
2021/06/06 12:50:14;;;;;;;6.57;2.10;;;25.80;49.30;;;;;;5095650;28;20292;-40
2021/06/06 12:52:45;;;;;;;5.22;2.40;;;26.00;48.10;;;;;;5095517;28;20039;-47
2021/06/06 12:55:31;;;;;;;5.72;2.65;;;26.30;47.80;;;;;;5095590;28;20420;-41
2021/06/06 12:58:26;;;;;;;4.03;2.55;;;26.50;46.80;;;;;;5095790;28;20425;-41
2021/06/06 13:01:13;;;;;;;6.60;2.60;;;26.70;47.00;;;;;;5094929;28;20331;-40
2021/06/06 13:03:47;;;;;;;3.97;2.13;;;26.90;45.50;;;;;;5095594;28;20055;-44
2021/06/06 13:06:29;;;;;;;2.67;2.25;;;27.00;45.70;;;;;;5095337;28;20072;-48
2021/06/06 13:09:23;;;;;;;4.78;2.22;;;27.20;45.00;;;;;;5095529;28;20316;-40
2021/06/06 13:12:27;;;;;;;7.22;2.30;;;27.30;45.00;;;;;;5095751;28;20089;-45
2021/06/06 13:15:06;;;;;;;7.75;2.70;;;27.50;45.10;;;;;;5082124;28;20044;-40
2021/06/06 13:17:46;;;;;;;8.18;2.65;;;27.70;42.40;;;;;;5095228;28;20552;-40
2021/06/06 13:20:15;;;;;;;6.32;2.53;;;27.90;41.80;;;;;;5095574;28;20051;-43
2021/06/06 13:23:04;;;;;;;6.73;2.90;;;28.00;41.30;;;;;;5095983;28;20059;-40
2021/06/06 13:25:50;;;;;;;6.97;2.53;;;28.00;40.70;;;;;;5095505;28;20294;-46
2021/06/06 13:28:26;;;;;;;5.57;2.40;;;28.00;41.70;;;;;;5088167;28;20051;-45
2021/06/06 13:31:07;;;;;;;6.22;2.65;;;27.80;40.70;;;;;;5095229;28;20043;-40
2021/06/06 13:33:35;;;;;;;;;;;27.60;41.20;;;;;;5095640;28;20043;-43
2021/06/06 13:36:03;;;;;;;5.30;2.38;;;27.40;42.10;;;;;;5095137;28;19912;-43
2021/06/06 13:38:30;;;;;;;9.75;2.42;;;27.30;41.60;;;;;;5095475;28;20343;-47
2021/06/06 13:40:58;;;;;;;7.97;2.67;;;27.30;41.00;;;;;;5095449;28;20036;-40
2021/06/06 13:43:24;;;;;;;6.53;2.50;;;27.30;41.00;;;;;;5095063;28;20047;-40
2021/06/06 13:45:50;;;;;;;11.20;2.55;;;27.30;41.50;;;;;;5095274;28;20056;-40
2021/06/06 13:48:19;;;;;;;5.82;2.72;;;27.30;41.20;;;;;;5095081;28;20312;-44
2021/06/06 13:50:45;;;;;;;4.45;2.38;;;27.30;41.00;;;;;;5095144;28;20032;-43
2021/06/06 13:53:21;;;;;;;4.60;2.20;;;27.20;41.10;;;;;;5094886;28;20123;-43
2021/06/06 13:55:47;;;;;;;9.00;2.55;;;27.10;41.30;;;;;;5095250;28;20150;-44
2021/06/06 13:58:13;;;;;;;6.22;2.22;;;27.10;40.90;;;;;;5095083;28;20053;-42
2021/06/06 14:00:40;;;;;;;4.82;2.00;;;27.00;40.90;;;;;;5093905;28;20078;-41
2021/06/06 14:03:24;;;;;;;5.80;2.22;;;26.80;40.10;;;;;;5094937;28;20032;-42
2021/06/06 14:05:54;;;;;;;8.05;3.03;;;26.70;40.40;;;;;;5098629;28;20024;-40
2021/06/06 14:08:20;;;;;;;6.20;2.53;;;26.40;40.90;;;;;;5098410;28;20439;-40
2021/06/06 14:10:48;;;;;;;10.05;2.65;;;26.20;41.60;;;;;;5098704;28;20033;-43
2021/06/06 14:13:22;;;;;;;4.70;2.20;;;26.00;41.50;;;;;;5096980;28;20066;-40
2021/06/06 14:15:49;;;;;;;3.38;2.22;;;25.80;41.70;;;;;;5098357;28;20373;-43
2021/06/06 14:18:16;;;;;;;6.40;2.50;;;25.60;42.10;;;;;;5096926;28;20063;-44
2021/06/06 14:20:42;;;;;;;4.22;2.10;;;25.40;42.10;;;;;;5098309;28;20033;-43
2021/06/06 14:23:09;;;;;;;8.50;2.83;;;25.10;42.20;;;;;;5098324;28;20308;-40
2021/06/06 14:25:38;;;;;;;4.18;2.30;;;24.90;42.70;;;;;;5098238;28;20047;-40
2021/06/06 14:28:05;;;;;;;4.03;2.30;;;24.60;43.20;;;;;;5098298;28;20020;-41
2021/06/06 14:30:33;;;;;;;10.18;2.80;;;24.40;43.60;;;;;;5097841;28;20024;-44
2021/06/06 14:33:00;;;;;;;6.63;2.00;;;24.20;44.40;;;;;;5098121;28;20020;-40
2021/06/06 14:35:26;;;;;;;4.88;2.42;;;24.00;44.80;;;;;;5098239;28;20194;-40
2021/06/06 14:37:52;;;;;;;4.95;2.70;;;23.90;45.30;;;;;;5098118;28;20028;-43
2021/06/06 14:40:25;;;;;;;7.10;3.10;;;23.80;45.70;;;;;;5097737;28;20035;-43
2021/06/06 14:42:52;;;;;;;9.57;2.88;;;23.70;46.30;;;;;;5097854;28;20028;-44
2021/06/06 14:45:21;;;;;;;6.35;2.50;;;23.50;46.40;;;;;;5098020;28;20089;-42
2021/06/06 14:47:47;;;;;;;8.73;2.45;;;23.40;46.90;;;;;;5097820;28;20346;-42
2021/06/06 14:50:13;;;;;;;6.07;3.05;;;23.20;47.10;;;;;;5097594;28;20077;-40
2021/06/06 14:52:40;;;;;;;9.70;2.95;;;23.10;47.50;;;;;;5098132;28;20407;-45
2021/06/06 14:55:08;;;;;;;5.75;2.53;;;23.00;47.70;;;;;;5097690;28;20036;-42
2021/06/06 14:57:34;;;;;;;11.73;4.05;;;22.90;48.00;;;;;;5097953;28;20036;-43
2021/06/06 15:00:00;;;;;;;5.25;2.42;;;22.80;48.30;;;;;;5097475;28;20054;-40
2021/06/06 15:02:26;;;;;;;5.78;2.90;;;22.70;48.70;;;;;;5097818;28;20039;-40
2021/06/06 15:04:52;;;;;;;6.90;2.50;;;22.60;48.90;;;;;;5097466;28;20024;-41
2021/06/06 15:07:18;;;;;;;8.30;2.83;;;22.50;49.20;;;;;;5096171;28;20032;-40
2021/06/06 15:09:43;;;;;;;6.13;2.42;;;22.40;49.50;;;;;;5097272;28;20024;-43
2021/06/06 15:12:10;;;;;;;14.15;7.07;;;22.40;50.00;;;;;;5097713;28;20028;-42
2021/06/06 15:14:35;;;;;;;15.88;3.40;;;22.40;50.20;;;;;;5096991;28;20044;-40
2021/06/06 15:17:01;;;;;;;10.93;2.72;;;22.40;50.30;;;;;;5096911;28;20320;-45
2021/06/06 15:19:28;;;;;;;8.25;2.50;;;22.30;50.50;;;;;;5097581;28;20032;-42
2021/06/06 15:21:54;;;;;;;12.05;2.92;;;22.30;50.70;;;;;;5097217;28;20036;-44
2021/06/06 15:24:20;;;;;;;5.13;2.47;;;22.30;50.60;;;;;;5096919;28;20046;-43
2021/06/06 15:26:46;;;;;;;8.60;2.70;;;22.20;50.70;;;;;;5097254;28;20028;-40
2021/06/06 15:29:15;;;;;;;6.95;2.42;;;22.30;50.90;;;;;;5096962;28;20434;-40
2021/06/06 15:31:44;;;;;;;7.10;2.95;;;22.30;51.30;;;;;;5097237;28;20031;-40
2021/06/06 15:34:11;;;;;;;8.77;2.83;;;22.40;51.40;;;;;;5097011;28;20031;-42
2021/06/06 15:36:37;;;;;;;3.25;2.20;;;22.50;51.20;;;;;;5097075;28;20153;-40
2021/06/06 15:39:14;;;;;;;3.25;2.20;;;22.60;51.10;;;;;;5096341;28;20028;-43
2021/06/06 15:41:43;;;;;;;8.07;3.08;;;22.80;50.50;;;;;;5096935;28;20024;-41
2021/06/06 15:44:11;;;;;;;6.30;2.72;;;22.90;50.30;;;;;;5096725;28;20044;-40
2021/06/06 15:46:38;;;;;;;5.00;2.47;;;23.00;49.90;;;;;;5096899;28;20020;-42
2021/06/06 15:49:04;;;;;;;8.73;2.90;;;23.00;49.50;;;;;;5096225;28;20107;-40
2021/06/06 15:51:35;;;;;;;7.35;2.58;;;23.00;49.70;;;;;;5096556;28;20081;-44
2021/06/06 15:54:02;;;;;;;6.13;3.20;;;23.10;49.90;;;;;;5096602;28;20028;-40
2021/06/06 15:56:28;;;;;;;3.90;2.70;;;23.10;50.00;;;;;;5096806;28;20111;-42
2021/06/06 15:58:55;;;;;;;4.85;3.00;;;23.10;50.00;;;;;;5096234;28;20455;-40
2021/06/06 16:01:21;;;;;;;7.53;2.70;;;23.20;50.00;;;;;;5096568;28;20063;-42
2021/06/06 16:03:47;;;;;;;7.45;2.80;;;23.20;49.40;;;;;;5096053;28;20442;-46
2021/06/06 16:06:14;;;;;;;5.78;2.55;;;23.20;49.80;;;;;;5096231;28;20107;-40
2021/06/06 16:08:41;;;;;;;5.60;2.80;;;23.30;49.50;;;;;;5095040;28;20025;-42
2021/06/06 16:11:08;;;;;;;6.70;3.47;;;23.20;49.80;;;;;;5096350;28;20320;-40
2021/06/06 16:13:35;;;;;;;7.05;2.70;;;23.30;49.30;;;;;;5095969;28;20028;-40
2021/06/06 16:16:02;;;;;;;5.25;2.45;;;23.30;49.10;;;;;;5096114;28;20052;-41
2021/06/06 16:18:27;;;;;;;5.40;3.08;;;23.20;48.90;;;;;;5094445;28;20039;-44
2021/06/06 16:20:55;;;;;;;6.32;2.95;;;23.20;49.20;;;;;;5096385;28;20297;-40
2021/06/06 16:23:21;;;;;;;5.97;2.92;;;23.20;49.30;;;;;;5095808;28;20027;-43
2021/06/06 16:25:46;;;;;;;6.20;2.90;;;23.20;49.30;;;;;;5095923;28;20024;-40
2021/06/06 16:28:12;;;;;;;6.72;3.00;;;23.10;49.40;;;;;;5094988;28;20073;-43
2021/06/06 16:30:39;;;;;;;5.70;2.83;;;23.00;49.60;;;;;;5095658;28;20024;-42
2021/06/06 16:33:07;;;;;;;5.18;2.60;;;23.00;49.80;;;;;;5095474;28;20047;-43
2021/06/06 16:35:34;;;;;;;8.50;3.63;;;22.90;49.90;;;;;;5095863;28;20028;-44
2021/06/06 16:38:00;;;;;;;9.15;3.72;;;22.80;50.20;;;;;;5095867;28;20032;-43
2021/06/06 16:40:26;;;;;;;8.30;3.40;;;22.70;50.10;;;;;;5095775;28;20028;-40
2021/06/06 16:42:53;;;;;;;6.90;3.50;;;22.70;50.40;;;;;;5095932;28;20046;-43
2021/06/06 16:45:26;;;;;;;8.85;3.45;;;22.60;50.50;;;;;;5095394;28;20024;-42
2021/06/06 16:47:52;;;;;;;11.23;4.85;;;22.50;51.00;;;;;;5095786;28;20024;-44
2021/06/06 16:50:19;;;;;;;11.15;5.43;;;22.50;51.10;;;;;;5095494;28;20132;-41
2021/06/06 16:52:44;;;;;;;9.07;5.25;;;22.40;51.20;;;;;;5095814;28;20077;-40
2021/06/06 16:55:24;;;;;;;9.40;5.25;;;22.30;51.50;;;;;;5095281;28;20028;-40
2021/06/06 16:57:51;;;;;;;9.23;3.50;;;22.30;51.90;;;;;;5095849;28;20033;-44
2021/06/06 17:00:20;;;;;;;11.15;3.70;;;22.20;51.80;;;;;;5095408;28;20538;-40
2021/06/06 17:02:46;;;;;;;4.23;2.60;;;22.20;52.20;;;;;;5095610;28;20036;-44
2021/06/06 17:05:12;;;;;;;6.05;3.13;;;22.10;52.20;;;;;;5095383;28;20039;-41
2021/06/06 17:07:39;;;;;;;7.15;3.53;;;22.00;52.50;;;;;;5095912;28;20024;-40
2021/06/06 17:10:08;;;;;;;11.77;4.80;;;22.00;52.90;;;;;;5095577;28;20035;-40
2021/06/06 17:12:34;;;;;;;8.57;3.83;;;21.90;53.20;;;;;;5095817;28;20032;-39
2021/06/06 17:15:00;;;;;;;7.45;4.35;;;21.80;53.30;;;;;;5094923;28;20048;-45
2021/06/06 17:17:26;;;;;;;10.90;5.35;;;21.70;53.40;;;;;;5095673;28;20051;-42
2021/06/06 17:19:51;;;;;;;8.85;4.60;;;21.70;53.70;;;;;;5095487;28;20317;-43
2021/06/06 17:22:17;;;;;;;21.55;6.70;;;21.60;53.80;;;;;;5095590;28;20029;-43
2021/06/06 17:24:42;;;;;;;10.63;6.32;;;21.50;54.00;;;;;;5095061;28;20354;-43
2021/06/06 17:27:08;;;;;;;10.95;7.82;;;21.50;54.30;;;;;;5095423;28;20077;-43
2021/06/06 17:29:34;;;;;;;12.93;6.05;;;21.40;54.80;;;;;;5095282;28;20077;-42
2021/06/06 17:32:02;;;;;;;11.93;3.83;;;21.30;54.90;;;;;;5095457;28;20082;-43
2021/06/06 17:34:27;;;;;;;10.55;4.85;;;21.30;55.00;;;;;;5095452;28;20059;-43
2021/06/06 17:36:54;;;;;;;7.75;3.17;;;21.20;55.30;;;;;;5095555;28;20060;-42
2021/06/06 17:39:20;;;;;;;15.02;4.88;;;21.10;55.50;;;;;;5096565;28;20070;-42
2021/06/06 17:41:47;;;;;;;8.25;4.03;;;21.10;55.80;;;;;;5099642;28;20040;-42
2021/06/06 17:44:15;;;;;;;9.68;3.92;;;21.00;55.90;;;;;;5098867;28;20032;-40
2021/06/06 17:46:43;;;;;;;8.85;3.53;;;20.90;55.90;;;;;;5098319;28;20238;-39
2021/06/06 17:49:09;;;;;;;10.50;3.90;;;20.90;56.10;;;;;;5098832;28;20024;-45
2021/06/06 17:51:36;;;;;;;9.57;3.78;;;20.90;56.60;;;;;;5098832;28;20078;-42
2021/06/06 17:54:04;;;;;;;6.72;3.30;;;20.90;56.60;;;;;;5098694;28;20036;-43
2021/06/06 17:56:30;;;;;;;9.93;3.10;;;20.80;56.70;;;;;;5099102;28;20131;-42
2021/06/06 17:58:56;;;;;;;12.23;3.65;;;20.70;56.90;;;;;;5098770;28;20290;-42
2021/06/06 18:01:24;;;;;;;3.80;2.58;;;20.70;57.10;;;;;;5098885;28;20637;-39
2021/06/06 18:03:50;;;;;;;10.60;3.65;;;20.70;57.40;;;;;;5098840;28;20074;-42
2021/06/06 18:06:17;;;;;;;5.97;3.92;;;20.60;57.70;;;;;;5098757;28;20028;-39
2021/06/06 18:08:43;;;;;;;7.13;3.10;;;20.60;57.90;;;;;;5098698;28;20442;-40
2021/06/06 18:11:11;;;;;;;6.32;2.88;;;20.50;57.90;;;;;;5098781;28;20308;-39
2021/06/06 18:13:40;;;;;;;9.80;3.45;;;20.40;58.10;;;;;;5098823;28;20035;-39
2021/06/06 18:16:07;;;;;;;9.20;3.28;;;20.40;58.60;;;;;;5098404;28;20059;-42
2021/06/06 18:18:33;;;;;;;7.10;3.67;;;20.40;58.70;;;;;;5098492;28;20028;-39
2021/06/06 18:21:05;;;;;;;10.25;4.10;;;20.30;58.90;;;;;;5097244;28;20032;-43
2021/06/06 18:23:30;;;;;;;8.75;3.90;;;20.20;58.90;;;;;;5098631;28;20399;-39
2021/06/06 18:25:59;;;;;;;10.65;4.70;;;20.20;59.50;;;;;;5098284;28;20038;-39
2021/06/06 18:28:27;;;;;;;7.38;4.47;;;20.20;59.60;;;;;;5098456;28;20035;-46
2021/06/06 18:30:53;;;;;;;13.00;5.00;;;20.10;59.20;;;;;;5098573;28;20032;-39
2021/06/06 18:33:22;;;;;;;9.35;4.72;;;20.10;59.10;;;;;;5098180;28;20028;-42
2021/06/06 18:35:47;;;;;;;8.90;4.50;;;20.10;59.10;;;;;;5098307;28;20032;-42
2021/06/06 18:38:13;;;;;;;11.15;5.32;;;20.10;59.00;;;;;;5098180;28;20107;-39
2021/06/06 18:40:42;;;;;;;11.70;5.47;;;20.00;59.20;;;;;;5098172;28;20379;-42
2021/06/06 18:43:14;;;;;;;10.65;4.95;;;20.00;59.40;;;;;;5097872;28;20016;-39
2021/06/06 18:45:43;;;;;;;8.75;4.85;;;20.00;59.60;;;;;;5097990;28;20032;-43
2021/06/06 18:48:10;;;;;;;7.40;4.70;;;20.00;59.70;;;;;;5098210;28;20106;-40
2021/06/06 18:50:37;;;;;;;7.18;4.43;;;19.90;59.80;;;;;;5096780;28;20459;-42
2021/06/06 18:53:03;;;;;;;7.38;4.20;;;19.90;59.90;;;;;;5097926;28;20036;-42
2021/06/06 18:55:33;;;;;;;7.70;4.80;;;19.90;59.90;;;;;;5097667;28;20023;-39
2021/06/06 18:57:59;;;;;;;8.23;4.28;;;19.90;59.90;;;;;;5097633;28;20096;-40
2021/06/06 19:00:38;;;;;;;10.98;4.05;;;19.90;60.00;;;;;;5097470;28;20024;-41
2021/06/06 19:03:05;;;;;;;6.85;3.92;;;19.80;60.10;;;;;;5097469;28;20051;-39
2021/06/06 19:05:31;;;;;;;5.05;3.42;;;19.80;60.00;;;;;;5097468;28;20072;-42
2021/06/06 19:08:00;;;;;;;9.18;3.80;;;19.80;60.00;;;;;;5097668;28;20308;-39
2021/06/06 19:10:27;;;;;;;8.75;3.80;;;19.70;60.10;;;;;;5097438;28;20047;-39
2021/06/06 19:12:56;;;;;;;9.95;3.17;;;19.70;60.20;;;;;;5097695;28;20062;-44
2021/06/06 19:15:23;;;;;;;11.68;3.85;;;19.70;60.30;;;;;;5097089;28;20059;-43
2021/06/06 19:17:49;;;;;;;10.52;3.80;;;19.70;60.40;;;;;;5097527;28;20412;-43